Time;durP1;ratioP1;P1;durP2;ratioP2;P2;SDS_P1;SDS_P2;PMS_P1;PMS_P2;Temp;Humidity;BMP_temperature;BMP_pressure;BME280_temperature;BME280_humidity;BME280_pressure;Samples;Min_cycle;Max_cycle;Signal;HPM_P1;HPM_P2
2021/06/23 00:01:05;;;;;;;14.52;10.65;;;20.00;71.30;;;;;;4916668;29;20028;-87
2021/06/23 00:03:30;;;;;;;14.68;10.40;;;20.00;70.60;;;;;;4918297;29;20485;-88
2021/06/23 00:05:56;;;;;;;15.10;9.95;;;19.90;70.40;;;;;;4917666;29;20130;-89
2021/06/23 00:08:22;;;;;;;13.88;10.10;;;19.80;70.50;;;;;;4917625;29;20032;-88
2021/06/23 00:10:49;;;;;;;13.90;9.73;;;19.80;70.60;;;;;;4917290;29;20080;-89
2021/06/23 00:13:15;;;;;;;14.95;10.23;;;19.80;70.70;;;;;;4919078;29;20137;-88
2021/06/23 00:15:41;;;;;;;14.40;10.13;;;19.80;70.70;;;;;;4920789;29;20493;-89
2021/06/23 00:18:07;;;;;;;15.40;10.50;;;19.80;70.70;;;;;;4922052;29;20048;-91
2021/06/23 00:20:34;;;;;;;15.57;10.20;;;19.70;70.80;;;;;;4921886;29;20028;-89
2021/06/23 00:23:00;;;;;;;17.83;10.68;;;19.70;70.70;;;;;;4920048;29;20072;-90
2021/06/23 00:25:27;;;;;;;14.68;10.05;;;19.70;70.70;;;;;;4919630;29;20036;-86
2021/06/23 00:27:59;;;;;;;15.48;10.63;;;19.70;70.90;;;;;;4917985;29;20056;-85
2021/06/23 00:30:26;;;;;;;15.32;10.68;;;19.60;70.80;;;;;;4919430;29;20051;-88
2021/06/23 00:32:54;;;;;;;14.13;9.63;;;19.60;70.90;;;;;;4919366;29;20038;-88
2021/06/23 00:35:21;;;;;;;16.13;10.93;;;19.60;70.90;;;;;;4919570;29;20121;-88
2021/06/23 00:37:47;;;;;;;15.57;10.15;;;19.60;70.90;;;;;;4919250;29;20115;-89
2021/06/23 00:40:13;;;;;;;16.45;10.10;;;19.60;71.10;;;;;;4919480;29;20124;-88
2021/06/23 00:42:42;;;;;;;14.65;10.48;;;19.60;71.00;;;;;;4918947;29;20472;-88
2021/06/23 00:45:10;;;;;;;16.55;11.25;;;19.50;70.80;;;;;;4919176;29;20440;-88
2021/06/23 00:47:36;;;;;;;16.83;11.80;;;19.50;71.00;;;;;;4918921;29;20416;-87
2021/06/23 00:50:06;;;;;;;15.82;11.50;;;19.50;71.20;;;;;;4918992;29;20020;-87
2021/06/23 00:52:34;;;;;;;16.15;11.40;;;19.40;71.00;;;;;;4918561;29;20030;-87
2021/06/23 00:55:00;;;;;;;17.77;12.82;;;19.40;71.00;;;;;;4918978;29;20468;-87
2021/06/23 00:57:27;;;;;;;16.02;11.90;;;19.40;71.20;;;;;;4918803;29;20405;-87
2021/06/23 00:59:55;;;;;;;19.02;13.15;;;19.30;71.30;;;;;;4918040;29;20032;-88
2021/06/23 01:02:22;;;;;;;17.25;12.15;;;19.30;71.30;;;;;;4918060;29;20362;-89
2021/06/23 01:04:50;;;;;;;16.75;12.20;;;19.30;71.50;;;;;;4916196;29;20025;-89
2021/06/23 01:07:17;;;;;;;17.55;12.20;;;19.30;71.50;;;;;;4918744;29;20080;-86
2021/06/23 01:09:43;;;;;;;16.70;11.88;;;19.20;71.50;;;;;;4918426;29;20115;-87
2021/06/23 01:12:16;;;;;;;17.25;12.32;;;19.20;71.70;;;;;;4918581;29;20107;-87
2021/06/23 01:14:42;;;;;;;19.88;13.15;;;19.20;71.80;;;;;;4918565;29;20044;-88
2021/06/23 01:17:09;;;;;;;18.50;13.48;;;19.30;71.80;;;;;;4918384;29;20071;-88
2021/06/23 01:19:41;;;;;;;17.92;13.43;;;19.20;71.70;;;;;;4918353;29;20020;-89
2021/06/23 01:22:06;;;;;;;17.92;12.77;;;19.20;71.90;;;;;;4917741;29;20075;-89
2021/06/23 01:24:32;;;;;;;18.55;12.68;;;19.20;71.90;;;;;;4917262;29;20028;-89
2021/06/23 01:26:57;;;;;;;18.30;12.48;;;19.20;71.70;;;;;;4921373;29;20099;-89
2021/06/23 01:29:23;;;;;;;21.02;13.32;;;19.10;71.60;;;;;;4918254;29;20051;-89
2021/06/23 01:31:49;;;;;;;17.90;12.88;;;19.00;71.60;;;;;;4914844;29;20067;-88
2021/06/23 01:34:15;;;;;;;18.60;13.60;;;19.00;71.80;;;;;;4921347;29;20030;-89
2021/06/23 01:36:41;;;;;;;20.33;14.10;;;19.00;71.80;;;;;;4918308;29;20036;-89
2021/06/23 01:39:07;;;;;;;19.00;13.63;;;19.00;72.30;;;;;;4917397;29;20058;-89
2021/06/23 01:41:33;;;;;;;19.52;13.57;;;19.00;72.40;;;;;;4918058;29;20036;-89
2021/06/23 01:44:00;;;;;;;20.40;14.20;;;19.00;72.30;;;;;;4901163;29;20066;-89
2021/06/23 01:46:26;;;;;;;18.73;13.63;;;19.00;72.20;;;;;;4917159;29;20032;-89
2021/06/23 01:48:51;;;;;;;20.35;13.50;;;19.10;72.30;;;;;;4917930;29;20515;-89
2021/06/23 01:51:17;;;;;;;19.85;13.75;;;18.90;72.10;;;;;;4918075;29;20040;-89
2021/06/23 01:53:44;;;;;;;20.15;13.43;;;18.90;72.10;;;;;;4917879;29;20044;-89
2021/06/23 01:56:09;;;;;;;19.45;14.10;;;18.90;71.90;;;;;;4917177;29;20029;-89
2021/06/23 01:58:39;;;;;;;19.23;13.82;;;18.80;72.00;;;;;;4918150;29;20495;-89
2021/06/23 02:01:17;;;;;;;19.33;13.75;;;18.80;72.80;;;;;;4917631;29;20027;-88
2021/06/23 02:03:54;;;;;;;18.50;12.90;;;18.70;72.30;;;;;;4919197;29;20024;-88
2021/06/23 02:06:46;;;;;;;19.42;12.93;;;18.70;72.30;;;;;;4917324;29;20024;-89
2021/06/23 02:09:39;;;;;;;20.73;13.95;;;18.60;72.10;;;;;;4912129;29;20032;-88
2021/06/23 02:12:26;;;;;;;20.73;13.95;;;18.60;72.30;;;;;;4917322;29;20111;-88
2021/06/23 02:14:58;;;;;;;18.92;12.77;;;18.50;72.30;;;;;;4917334;29;20024;-88
2021/06/23 02:17:26;;;;;;;20.98;13.05;;;18.50;72.30;;;;;;4900969;29;20472;-88
2021/06/23 02:19:54;;;;;;;22.15;14.55;;;18.40;72.20;;;;;;4917382;29;20060;-88
2021/06/23 02:22:26;;;;;;;21.15;14.75;;;18.40;72.30;;;;;;4917259;29;20012;-88
2021/06/23 02:24:55;;;;;;;19.02;13.50;;;18.30;72.40;;;;;;4916402;29;20024;-87
2021/06/23 02:27:22;;;;;;;20.92;14.40;;;18.40;72.60;;;;;;4917202;29;20028;-87
2021/06/23 02:29:49;;;;;;;20.67;13.73;;;18.30;72.50;;;;;;4917344;29;20024;-88
2021/06/23 02:32:26;;;;;;;22.50;15.02;;;18.20;72.40;;;;;;4917151;29;20511;-88
2021/06/23 02:34:54;;;;;;;24.73;15.65;;;18.30;72.70;;;;;;4914590;29;20024;-88
2021/06/23 02:37:22;;;;;;;19.00;13.57;;;18.20;72.60;;;;;;4916751;29;20027;-88
2021/06/23 02:39:49;;;;;;;21.90;14.45;;;18.10;72.60;;;;;;4916546;29;20384;-88
2021/06/23 02:42:15;;;;;;;25.60;16.17;;;18.10;72.70;;;;;;4916807;29;20119;-89
2021/06/23 02:44:41;;;;;;;25.88;16.83;;;18.10;73.80;;;;;;4920779;29;20466;-88
2021/06/23 02:47:07;;;;;;;24.60;17.40;;;18.20;73.30;;;;;;4916979;29;20062;-88
2021/06/23 02:49:33;;;;;;;26.80;16.80;;;18.20;73.50;;;;;;4916855;29;20035;-88
2021/06/23 02:52:00;;;;;;;24.90;16.92;;;18.20;73.50;;;;;;4900324;29;20520;-88
2021/06/23 02:54:27;;;;;;;25.73;17.10;;;18.30;73.40;;;;;;4916597;29;20966;-88
2021/06/23 02:56:53;;;;;;;26.90;16.20;;;18.20;73.60;;;;;;4917047;29;20028;-88
2021/06/23 02:59:20;;;;;;;29.42;18.00;;;18.20;73.80;;;;;;4916784;29;20084;-88
2021/06/23 03:01:47;;;;;;;28.30;17.60;;;18.30;73.80;;;;;;4916610;29;20028;-88
2021/06/23 03:04:13;;;;;;;27.50;18.55;;;18.30;73.70;;;;;;4917187;29;20035;-88
2021/06/23 03:06:38;;;;;;;26.92;16.98;;;18.40;73.60;;;;;;4918906;29;20040;-88
2021/06/23 03:09:05;;;;;;;29.77;17.65;;;18.40;73.70;;;;;;4917002;29;20036;-88
2021/06/23 03:11:35;;;;;;;24.58;16.00;;;18.40;73.80;;;;;;4920644;29;20043;-89
2021/06/23 03:14:01;;;;;;;24.85;15.52;;;18.40;73.80;;;;;;4916451;29;20031;-88
2021/06/23 03:16:27;;;;;;;24.20;15.30;;;18.30;73.70;;;;;;4915527;29;20398;-88
2021/06/23 03:18:53;;;;;;;22.73;15.27;;;18.30;73.40;;;;;;4916442;29;20028;-87
2021/06/23 03:21:20;;;;;;;22.65;15.55;;;18.30;73.40;;;;;;4916452;29;20027;-87
2021/06/23 03:23:47;;;;;;;25.08;16.50;;;18.20;73.50;;;;;;4916332;29;20373;-87
2021/06/23 03:26:12;;;;;;;26.17;17.08;;;18.20;73.70;;;;;;4916127;29;20474;-87
2021/06/23 03:28:38;;;;;;;27.80;18.10;;;18.20;74.10;;;;;;4916321;29;20108;-88
2021/06/23 03:31:04;;;;;;;27.35;18.13;;;18.30;74.30;;;;;;4916100;29;20023;-88
2021/06/23 03:33:30;;;;;;;28.85;18.27;;;18.30;74.20;;;;;;4915286;29;20477;-89
2021/06/23 03:35:56;;;;;;;26.17;17.65;;;18.30;73.90;;;;;;4915482;29;20387;-87
2021/06/23 03:38:22;;;;;;;25.15;16.38;;;18.20;74.00;;;;;;4916261;29;20103;-88
2021/06/23 03:40:48;;;;;;;28.95;17.88;;;18.20;74.00;;;;;;4916469;29;20025;-88
2021/06/23 03:43:13;;;;;;;26.60;16.55;;;18.30;74.10;;;;;;4916239;29;20068;-87
2021/06/23 03:45:39;;;;;;;28.65;18.10;;;18.20;74.20;;;;;;4915982;29;20044;-88
2021/06/23 03:48:05;;;;;;;27.17;17.35;;;18.20;74.20;;;;;;4917350;29;20504;-88
2021/06/23 03:50:32;;;;;;;26.10;16.90;;;18.20;74.50;;;;;;4919935;29;20091;-88
2021/06/23 03:52:58;;;;;;;28.25;18.63;;;18.30;74.60;;;;;;4920061;29;20012;-88
2021/06/23 03:55:27;;;;;;;25.48;17.40;;;18.30;74.50;;;;;;4920053;29;20024;-87
2021/06/23 03:57:55;;;;;;;28.50;16.90;;;18.30;74.50;;;;;;4920218;29;20167;-87
2021/06/23 04:00:22;;;;;;;25.13;16.45;;;18.30;74.50;;;;;;4919853;29;20056;-87
2021/06/23 04:02:50;;;;;;;26.23;17.65;;;18.30;74.80;;;;;;4919704;29;20376;-88
2021/06/23 04:05:16;;;;;;;26.13;16.85;;;18.40;74.90;;;;;;4917031;29;20029;-87
2021/06/23 04:07:42;;;;;;;24.52;16.17;;;18.40;75.00;;;;;;4919796;29;20140;-89
2021/06/23 04:10:08;;;;;;;23.83;16.23;;;18.50;74.70;;;;;;4920075;29;20504;-90
2021/06/23 04:12:35;;;;;;;23.73;16.30;;;18.50;74.70;;;;;;4919218;29;20020;-90
2021/06/23 04:15:05;;;;;;;24.10;17.25;;;18.50;74.70;;;;;;4920272;29;20031;-91
2021/06/23 04:17:31;;;;;;;24.55;16.88;;;18.50;74.90;;;;;;4918938;29;20064;-87
2021/06/23 04:19:58;;;;;;;24.23;16.58;;;18.50;75.00;;;;;;4922943;29;20024;-89
2021/06/23 04:22:24;;;;;;;22.80;15.73;;;18.50;74.90;;;;;;4928334;29;20052;-89
2021/06/23 04:24:52;;;;;;;26.20;17.05;;;18.60;74.90;;;;;;4932783;29;20108;-89
2021/06/23 04:27:19;;;;;;;27.65;17.35;;;18.60;75.00;;;;;;4925701;29;20036;-89
2021/06/23 04:29:45;;;;;;;24.00;16.30;;;18.60;75.00;;;;;;4924040;29;20021;-90
2021/06/23 04:32:11;;;;;;;36.72;26.95;;;18.60;74.90;;;;;;4925168;29;20025;-89
2021/06/23 04:34:36;;;;;;;24.77;16.95;;;18.70;74.80;;;;;;4925202;29;20028;-89
2021/06/23 04:37:02;;;;;;;25.30;16.10;;;18.70;74.80;;;;;;4923676;29;20406;-91
2021/06/23 04:39:28;;;;;;;24.85;16.55;;;18.70;75.10;;;;;;4920485;29;20025;-90
2021/06/23 04:41:53;;;;;;;47.83;41.47;;;18.70;75.00;;;;;;4923113;29;20538;-91
2021/06/23 04:44:19;;;;;;;24.42;16.65;;;18.70;74.90;;;;;;4924002;29;20083;-90
2021/06/23 04:46:45;;;;;;;25.42;16.75;;;18.70;75.20;;;;;;4919035;29;20036;-90
2021/06/23 04:49:10;;;;;;;24.00;15.10;;;18.80;75.20;;;;;;4924667;29;20028;-92
2021/06/23 04:51:36;;;;;;;23.00;15.38;;;18.80;75.00;;;;;;4922685;29;20028;-92
2021/06/23 04:54:02;;;;;;;26.95;15.85;;;18.80;74.60;;;;;;4919991;29;20024;-91
2021/06/23 04:56:27;;;;;;;22.05;15.07;;;18.80;74.90;;;;;;4918789;29;20059;-91
2021/06/23 04:58:53;;;;;;;23.80;14.93;;;18.70;74.90;;;;;;4921442;29;20377;-90
2021/06/23 05:01:20;;;;;;;21.30;15.57;;;18.70;74.90;;;;;;4919358;29;20119;-89
2021/06/23 05:03:45;;;;;;;24.35;15.52;;;18.70;75.00;;;;;;4918536;29;20560;-90
2021/06/23 05:06:11;;;;;;;21.13;15.02;;;18.70;75.10;;;;;;4915980;29;20124;-89
2021/06/23 05:08:37;;;;;;;22.23;15.57;;;18.70;75.00;;;;;;4918504;29;20654;-90
2021/06/23 05:11:03;;;;;;;22.85;15.23;;;18.80;75.40;;;;;;4918145;29;20511;-90
2021/06/23 05:13:28;;;;;;;23.10;15.95;;;18.80;75.40;;;;;;4919301;29;20380;-89
2021/06/23 05:15:56;;;;;;;23.92;15.98;;;18.80;75.30;;;;;;4917714;29;20028;-86
2021/06/23 05:18:22;;;;;;;24.85;17.13;;;18.90;75.30;;;;;;4918615;29;20115;-87
2021/06/23 05:20:48;;;;;;;22.75;15.63;;;18.90;75.60;;;;;;4918263;29;20545;-88
2021/06/23 05:23:14;;;;;;;23.25;14.90;;;18.90;75.60;;;;;;4919170;29;20036;-89
2021/06/23 05:25:39;;;;;;;25.52;16.77;;;19.00;75.50;;;;;;4919080;29;20082;-89
2021/06/23 05:28:05;;;;;;;24.92;17.17;;;19.00;75.50;;;;;;4918958;29;20119;-89
2021/06/23 05:30:31;;;;;;;26.42;15.68;;;19.10;75.70;;;;;;4921983;29;20034;-88
2021/06/23 05:32:57;;;;;;;20.63;14.52;;;19.10;75.50;;;;;;4900473;29;20401;-87
2021/06/23 05:35:22;;;;;;;21.05;14.60;;;19.00;75.00;;;;;;4918853;29;20468;-87
2021/06/23 05:37:48;;;;;;;19.95;12.95;;;19.00;74.80;;;;;;4919032;29;20036;-86
2021/06/23 05:40:14;;;;;;;25.10;14.95;;;18.90;74.70;;;;;;4918729;29;20039;-84
2021/06/23 05:42:43;;;;;;;21.20;14.48;;;18.90;74.80;;;;;;4917290;29;20032;-85
2021/06/23 05:45:09;;;;;;;21.33;13.63;;;18.90;75.20;;;;;;4918719;29;20036;-85
2021/06/23 05:47:34;;;;;;;24.42;15.82;;;18.90;75.80;;;;;;4918524;29;20489;-85
2021/06/23 05:50:02;;;;;;;19.92;12.75;;;19.00;75.90;;;;;;4917893;29;20021;-85
2021/06/23 05:52:28;;;;;;;20.60;13.52;;;19.10;76.20;;;;;;4917884;29;20382;-85
2021/06/23 05:54:54;;;;;;;20.17;14.43;;;19.20;76.10;;;;;;4917839;29;20044;-86
2021/06/23 05:57:19;;;;;;;21.00;14.02;;;19.30;76.40;;;;;;4916480;29;20469;-85
2021/06/23 05:59:45;;;;;;;20.88;14.52;;;19.40;76.50;;;;;;4917796;29;20051;-85
2021/06/23 06:02:10;;;;;;;21.67;15.90;;;19.60;76.60;;;;;;4901131;29;20028;-86
2021/06/23 06:04:36;;;;;;;21.13;15.57;;;19.80;76.60;;;;;;4917775;29;20028;-85
2021/06/23 06:07:02;;;;;;;21.10;14.98;;;19.90;76.20;;;;;;4918840;29;20043;-85
2021/06/23 06:09:27;;;;;;;22.00;14.85;;;19.90;76.00;;;;;;4918180;29;20424;-84
2021/06/23 06:11:53;;;;;;;24.58;15.30;;;20.00;76.10;;;;;;4917623;29;20062;-84
2021/06/23 06:14:19;;;;;;;23.00;15.77;;;20.10;76.10;;;;;;4917564;29;20111;-84
2021/06/23 06:16:44;;;;;;;21.80;14.98;;;20.10;76.40;;;;;;4917558;29;20031;-84
2021/06/23 06:19:10;;;;;;;21.00;13.73;;;20.20;76.50;;;;;;4917341;29;20020;-84
2021/06/23 06:21:36;;;;;;;22.05;14.95;;;20.40;76.70;;;;;;4918002;29;20035;-84
2021/06/23 06:24:01;;;;;;;19.52;13.10;;;20.40;75.90;;;;;;4900964;29;20025;-84
2021/06/23 06:26:29;;;;;;;21.33;14.35;;;20.40;75.40;;;;;;4917388;29;20036;-86
2021/06/23 06:28:55;;;;;;;21.27;13.05;;;20.30;74.50;;;;;;4916948;29;20064;-85
2021/06/23 06:31:20;;;;;;;22.95;13.18;;;20.10;74.90;;;;;;4917299;29;20036;-85
2021/06/23 06:33:48;;;;;;;21.23;14.43;;;20.00;74.70;;;;;;4917059;29;20024;-85
2021/06/23 06:36:13;;;;;;;19.95;14.27;;;19.90;74.80;;;;;;4916956;29;21074;-85
2021/06/23 06:38:39;;;;;;;19.50;12.38;;;19.80;74.80;;;;;;4917326;29;20099;-85
2021/06/23 06:41:05;;;;;;;18.40;12.60;;;19.70;74.90;;;;;;4916899;29;20028;-84
2021/06/23 06:43:30;;;;;;;20.88;13.68;;;19.60;75.10;;;;;;4916898;29;20040;-85
2021/06/23 06:45:56;;;;;;;19.15;13.63;;;19.70;75.60;;;;;;4916708;29;20484;-84
2021/06/23 06:48:24;;;;;;;21.95;14.27;;;19.70;76.20;;;;;;4917097;29;20385;-84
2021/06/23 06:50:50;;;;;;;21.00;15.05;;;19.80;76.50;;;;;;4916910;29;20536;-84
2021/06/23 06:53:16;;;;;;;18.52;13.50;;;20.00;76.40;;;;;;4916708;29;20079;-86
2021/06/23 06:55:42;;;;;;;22.10;14.50;;;20.10;76.10;;;;;;4917397;29;20032;-85
2021/06/23 06:58:08;;;;;;;19.73;13.60;;;20.10;76.20;;;;;;4917061;29;20039;-84
2021/06/23 07:00:34;;;;;;;22.05;15.50;;;20.20;76.40;;;;;;4916961;29;20036;-85
2021/06/23 07:02:59;;;;;;;21.60;14.05;;;20.30;76.50;;;;;;4918756;29;20496;-85
2021/06/23 07:05:25;;;;;;;20.95;14.85;;;20.50;76.60;;;;;;4917091;29;20087;-86
2021/06/23 07:07:51;;;;;;;21.15;13.80;;;20.60;76.70;;;;;;4916720;29;20057;-86
2021/06/23 07:10:17;;;;;;;19.35;13.77;;;20.80;77.30;;;;;;4916589;29;20039;-87
2021/06/23 07:12:43;;;;;;;17.90;12.68;;;21.00;76.90;;;;;;4921261;29;20452;-87
2021/06/23 07:15:09;;;;;;;22.17;15.00;;;21.10;76.30;;;;;;4916686;29;20389;-86
2021/06/23 07:17:35;;;;;;;19.58;12.65;;;21.20;76.70;;;;;;4916843;29;20036;-87
2021/06/23 07:20:02;;;;;;;21.48;14.32;;;21.20;76.30;;;;;;4916492;29;20034;-86
2021/06/23 07:22:28;;;;;;;20.40;13.95;;;21.30;76.30;;;;;;4915723;29;20032;-87
2021/06/23 07:24:53;;;;;;;17.45;12.85;;;21.40;77.00;;;;;;4913645;29;20029;-87
2021/06/23 07:27:20;;;;;;;18.60;12.82;;;21.60;77.70;;;;;;4914708;29;20052;-87
2021/06/23 07:29:45;;;;;;;16.73;12.20;;;22.00;78.00;;;;;;4916719;29;20036;-86
2021/06/23 07:32:15;;;;;;;18.92;12.40;;;22.30;78.20;;;;;;4916056;29;20024;-88
2021/06/23 07:37:08;;;;;;;18.25;12.43;;;22.90;78.00;;;;;;4916592;29;20024;-85
2021/06/23 07:39:35;;;;;;;17.88;12.05;;;23.00;76.50;;;;;;4916011;29;20036;-85
2021/06/23 07:42:02;;;;;;;16.52;11.48;;;23.20;76.50;;;;;;4916448;29;20504;-86
2021/06/23 07:44:34;;;;;;;18.25;12.85;;;23.30;76.60;;;;;;4915916;29;20051;-86
2021/06/23 07:47:06;;;;;;;15.15;10.98;;;23.40;76.30;;;;;;4916561;29;20036;-87
2021/06/23 07:49:34;;;;;;;17.45;11.98;;;23.60;75.90;;;;;;4923527;29;20111;-86
2021/06/23 08:10:56;;;;;;;16.38;11.23;;;23.90;75.90;;;;;;4917411;29;20036;-85
2021/06/23 08:13:22;;;;;;;17.33;11.68;;;24.00;75.20;;;;;;4925417;29;20466;-85
2021/06/23 08:15:49;;;;;;;16.70;10.98;;;24.10;75.10;;;;;;4923817;29;20111;-85
2021/06/23 08:18:19;;;;;;;15.55;10.57;;;24.40;76.30;;;;;;4916113;29;20020;-86
2021/06/23 08:20:45;;;;;;;17.48;10.80;;;24.60;76.30;;;;;;4916048;29;20047;-86
2021/06/23 08:23:10;;;;;;;13.90;9.88;;;24.90;76.20;;;;;;4916466;29;20087;-86
2021/06/23 08:25:36;;;;;;;15.68;10.10;;;25.20;75.20;;;;;;4916777;29;20109;-86
2021/06/23 08:28:02;;;;;;;14.68;10.43;;;25.20;74.60;;;;;;4916159;29;20016;-86
2021/06/23 08:30:28;;;;;;;14.35;10.48;;;25.30;75.20;;;;;;4916192;29;20024;-86
2021/06/23 08:32:55;;;;;;;15.63;10.60;;;25.50;75.10;;;;;;4914950;29;20060;-87
2021/06/23 08:35:21;;;;;;;15.13;10.75;;;25.70;75.20;;;;;;4918673;29;20031;-85
2021/06/23 08:37:47;;;;;;;16.52;10.75;;;25.90;75.00;;;;;;4920059;29;20409;-84
2021/06/23 08:40:14;;;;;;;14.35;10.30;;;26.10;74.60;;;;;;4919588;29;20035;-86
2021/06/23 08:42:40;;;;;;;13.88;9.95;;;26.20;73.90;;;;;;4919527;29;20059;-85
2021/06/23 08:45:07;;;;;;;15.15;10.30;;;26.20;74.20;;;;;;4918886;29;20032;-87
2021/06/23 08:47:41;;;;;;;14.88;10.13;;;26.20;73.30;;;;;;4918825;29;20032;-87
2021/06/23 08:50:09;;;;;;;14.88;10.32;;;26.20;73.30;;;;;;4919005;29;20148;-86
2021/06/23 08:52:35;;;;;;;14.77;10.02;;;26.30;74.10;;;;;;4918836;29;20031;-87
2021/06/23 08:55:02;;;;;;;14.57;10.32;;;26.50;74.80;;;;;;4918951;29;20461;-86
2021/06/23 08:57:28;;;;;;;15.75;10.48;;;26.60;73.20;;;;;;4917617;29;20087;-85
2021/06/23 08:59:53;;;;;;;14.20;10.13;;;26.80;73.80;;;;;;4919228;29;20507;-86
2021/06/23 09:02:19;;;;;;;15.13;9.73;;;26.90;73.50;;;;;;4917801;29;20028;-87
2021/06/23 09:04:56;;;;;;;15.40;10.15;;;27.00;73.80;;;;;;4922817;29;20401;-86
2021/06/23 09:07:38;;;;;;;13.02;9.13;;;27.30;74.70;;;;;;4918571;29;20043;-86
2021/06/23 09:10:25;;;;;;;13.88;9.75;;;27.60;74.10;;;;;;4920521;29;20083;-88
2021/06/23 09:13:00;;;;;;;15.43;10.30;;;27.80;73.50;;;;;;4925639;29;20028;-85
2021/06/23 09:16:02;;;;;;;13.43;9.80;;;27.90;73.50;;;;;;4921100;29;20024;-88
2021/06/23 09:18:29;;;;;;;13.95;8.88;;;28.20;73.20;;;;;;4879771;29;20064;-88
2021/06/23 09:21:05;;;;;;;14.98;9.32;;;28.10;71.50;;;;;;4910886;29;20087;-87
2021/06/23 09:23:41;;;;;;;13.27;9.23;;;28.00;71.40;;;;;;4917556;29;20028;-82
2021/06/23 09:26:12;;;;;;;14.27;10.00;;;27.90;71.40;;;;;;4918402;29;20031;-84
2021/06/23 09:28:38;;;;;;;13.23;9.77;;;27.80;70.80;;;;;;4918091;29;20043;-84
2021/06/23 09:31:06;;;;;;;14.88;9.68;;;27.70;70.30;;;;;;4918170;29;20032;-86
2021/06/23 09:33:33;;;;;;;13.60;8.75;;;27.70;70.70;;;;;;4917864;29;20377;-87
2021/06/23 09:36:04;;;;;;;13.65;10.20;;;27.70;70.10;;;;;;4920812;29;20059;-86
2021/06/23 09:38:43;;;;;;;14.07;10.00;;;27.50;69.70;;;;;;4920460;29;20083;-86
2021/06/23 09:41:23;;;;;;;13.77;9.88;;;27.30;69.00;;;;;;4918451;29;20018;-87
2021/06/23 09:43:59;;;;;;;16.10;11.13;;;27.10;69.40;;;;;;4917742;29;20089;-88
2021/06/23 09:46:31;;;;;;;13.43;9.45;;;27.00;69.30;;;;;;4916342;29;20129;-88
2021/06/23 09:49:08;;;;;;;12.75;9.00;;;26.90;68.60;;;;;;4918095;29;20024;-87
2021/06/23 09:51:56;;;;;;;15.05;9.77;;;26.60;68.30;;;;;;4917673;29;20035;-87
2021/06/23 09:54:31;;;;;;;16.02;11.60;;;26.50;69.80;;;;;;4918731;29;20465;-87
2021/06/23 09:57:03;;;;;;;15.25;11.10;;;26.70;70.40;;;;;;4917974;29;20063;-87
2021/06/23 09:59:41;;;;;;;14.48;9.65;;;26.90;70.50;;;;;;4918195;29;20020;-87
2021/06/23 10:02:30;;;;;;;13.48;9.27;;;27.10;70.50;;;;;;4917785;29;20031;-87
2021/06/23 10:04:58;;;;;;;12.13;8.05;;;27.00;69.80;;;;;;4914443;29;20488;-87
2021/06/23 10:07:45;;;;;;;14.77;9.35;;;27.00;68.90;;;;;;4916422;29;20036;-87
2021/06/23 10:10:20;;;;;;;13.18;9.63;;;26.70;67.70;;;;;;4917665;29;20020;-87
2021/06/23 10:12:47;;;;;;;13.32;8.73;;;26.50;67.70;;;;;;4917494;29;20028;-87
2021/06/23 10:15:14;;;;;;;13.20;9.48;;;26.40;69.30;;;;;;4917611;29;20023;-87
2021/06/23 10:17:40;;;;;;;13.05;9.18;;;26.40;69.00;;;;;;4917441;29;20160;-87
2021/06/23 10:20:07;;;;;;;14.30;9.48;;;26.40;69.00;;;;;;4917523;29;20103;-87
2021/06/23 10:22:34;;;;;;;12.65;8.80;;;26.50;69.50;;;;;;4919764;29;20119;-87
2021/06/23 10:25:05;;;;;;;11.75;7.90;;;26.60;69.70;;;;;;4917363;29;20093;-87
2021/06/23 10:27:34;;;;;;;13.10;9.40;;;26.70;69.40;;;;;;4917547;29;20032;-88
2021/06/23 10:30:00;;;;;;;14.18;8.82;;;26.80;69.80;;;;;;4917129;29;20024;-87
2021/06/23 10:32:26;;;;;;;12.75;8.05;;;26.90;69.40;;;;;;4917253;29;20030;-87
2021/06/23 10:34:52;;;;;;;11.57;7.40;;;27.00;68.70;;;;;;4917131;29;20033;-87
2021/06/23 10:37:22;;;;;;;11.45;8.20;;;26.90;68.90;;;;;;4917505;29;20419;-88
2021/06/23 10:39:49;;;;;;;12.00;7.75;;;27.00;68.70;;;;;;4920862;29;20104;-87
2021/06/23 10:42:15;;;;;;;10.52;6.47;;;27.10;69.00;;;;;;4916110;29;20031;-87
2021/06/23 10:44:47;;;;;;;11.77;7.30;;;27.10;68.50;;;;;;4914261;29;20060;-87
2021/06/23 10:47:34;;;;;;;8.70;5.22;;;27.20;68.60;;;;;;4915525;29;20040;-87
2021/06/23 10:50:00;;;;;;;8.43;4.47;;;27.40;69.10;;;;;;4917026;29;20024;-84
2021/06/23 10:52:31;;;;;;;10.18;6.03;;;27.60;68.40;;;;;;4913247;29;20055;-84
2021/06/23 10:55:04;;;;;;;10.05;6.38;;;27.80;68.50;;;;;;4917284;29;20016;-86
2021/06/23 10:57:38;;;;;;;9.43;5.57;;;28.00;68.10;;;;;;4916604;29;20066;-85
2021/06/23 11:00:27;;;;;;;11.40;7.53;;;28.00;67.70;;;;;;4916477;29;20024;-85
2021/06/23 11:03:15;;;;;;;11.90;6.20;;;28.10;68.10;;;;;;4916366;29;20024;-86
2021/06/23 11:05:49;;;;;;;11.00;7.75;;;28.30;68.00;;;;;;4917451;29;20032;-87
2021/06/23 11:08:33;;;;;;;12.30;6.57;;;28.40;67.50;;;;;;4917762;29;20131;-89
2021/06/23 11:11:03;;;;;;;10.18;5.10;;;28.60;68.00;;;;;;4919692;29;20499;-87
2021/06/23 11:13:31;;;;;;;8.93;5.00;;;29.00;68.90;;;;;;4916466;29;20032;-84
2021/06/23 11:15:58;;;;;;;8.18;4.65;;;29.50;69.20;;;;;;4912931;29;20035;-84
2021/06/23 11:18:31;;;;;;;9.43;5.35;;;29.90;68.80;;;;;;4916744;29;20103;-84
2021/06/23 11:21:06;;;;;;;11.50;5.53;;;30.20;68.70;;;;;;4915902;29;20036;-85
2021/06/23 11:23:54;;;;;;;9.60;4.93;;;30.70;69.40;;;;;;4916655;29;20043;-85
2021/06/23 11:26:22;;;;;;;9.25;4.80;;;31.60;71.10;;;;;;4916352;29;20025;-85
2021/06/23 11:28:53;;;;;;;7.88;4.00;;;32.10;67.50;;;;;;4916306;29;20110;-85
2021/06/23 11:31:21;;;;;;;8.23;5.00;;;32.70;70.30;;;;;;4916151;29;20350;-84
2021/06/23 11:33:57;;;;;;;10.18;4.97;;;33.60;70.90;;;;;;4919950;29;20492;-83
2021/06/23 11:36:24;;;;;;;7.35;4.30;;;34.60;70.60;;;;;;4915446;29;20499;-83
2021/06/23 11:38:52;;;;;;;13.88;6.70;;;35.50;68.50;;;;;;4915576;29;20035;-83
2021/06/23 11:41:18;;;;;;;10.02;6.05;;;36.20;67.80;;;;;;4916503;29;20379;-83
2021/06/23 11:43:44;;;;;;;9.35;5.78;;;36.40;62.20;;;;;;4915923;29;20123;-83
2021/06/23 11:46:11;;;;;;;10.05;5.25;;;36.20;65.10;;;;;;4916340;29;20075;-83
2021/06/23 11:48:37;;;;;;;9.80;5.38;;;36.90;64.30;;;;;;4915765;29;20024;-84
2021/06/23 11:51:04;;;;;;;10.27;5.65;;;36.30;58.10;;;;;;4916376;29;20036;-84
2021/06/23 11:53:30;;;;;;;9.07;5.47;;;35.20;57.30;;;;;;4916646;29;20035;-84
2021/06/23 11:55:55;;;;;;;11.55;5.68;;;34.40;57.20;;;;;;4920709;29;20472;-84
2021/06/23 11:58:21;;;;;;;9.82;5.78;;;33.80;58.20;;;;;;4921134;29;20076;-84
2021/06/23 12:00:47;;;;;;;10.32;5.43;;;33.70;61.30;;;;;;4915827;29;20029;-83
2021/06/23 12:03:15;;;;;;;10.15;5.20;;;34.60;64.60;;;;;;4916348;29;20507;-83
2021/06/23 12:05:41;;;;;;;8.60;4.65;;;35.90;63.70;;;;;;4919029;29;21177;-83
2021/06/23 12:08:07;;;;;;;7.35;4.25;;;37.00;65.00;;;;;;4916083;29;20028;-84
2021/06/23 12:10:33;;;;;;;9.93;4.18;;;38.50;64.80;;;;;;4919302;29;20052;-83
2021/06/23 12:13:00;;;;;;;8.88;4.20;;;39.70;64.60;;;;;;4919649;29;20043;-83
2021/06/23 12:15:27;;;;;;;7.40;4.00;;;40.90;64.30;;;;;;4920014;29;20384;-83
2021/06/23 12:17:58;;;;;;;5.95;3.63;;;42.00;62.00;;;;;;4919407;29;20547;-84
2021/06/23 12:20:26;;;;;;;8.20;3.80;;;42.80;60.70;;;;;;4919457;29;20032;-84
2021/06/23 12:22:56;;;;;;;5.85;3.28;;;43.60;60.20;;;;;;4917935;29;20474;-84
2021/06/23 12:25:24;;;;;;;5.18;3.00;;;44.50;59.80;;;;;;4919497;29;20048;-84
2021/06/23 12:27:50;;;;;;;4.57;2.83;;;45.50;57.30;;;;;;4918756;29;20032;-84
2021/06/23 12:30:17;;;;;;;6.10;3.08;;;44.10;51.10;;;;;;4919956;29;20036;-85
2021/06/23 12:32:42;;;;;;;5.90;2.92;;;42.40;49.50;;;;;;4919617;29;20032;-85
2021/06/23 12:35:08;;;;;;;5.13;3.03;;;40.80;48.60;;;;;;4920276;29;20031;-84
2021/06/23 12:37:34;;;;;;;6.47;3.88;;;39.60;48.80;;;;;;4923820;29;20126;-84
2021/06/23 12:40:00;;;;;;;6.40;3.60;;;38.90;47.70;;;;;;4918625;29;20099;-84
2021/06/23 12:42:26;;;;;;;8.00;3.65;;;38.20;48.30;;;;;;4919286;29;20108;-84
2021/06/23 12:44:52;;;;;;;6.40;3.60;;;37.70;49.20;;;;;;4919115;29;20497;-84
2021/06/23 12:47:17;;;;;;;6.03;3.17;;;38.80;55.20;;;;;;4919004;29;20064;-85
2021/06/23 12:49:43;;;;;;;5.55;3.30;;;40.30;55.80;;;;;;4919438;29;20501;-84
2021/06/23 12:52:09;;;;;;;5.22;3.03;;;41.70;55.20;;;;;;4919692;29;20032;-85
2021/06/23 12:54:34;;;;;;;5.32;2.92;;;42.80;53.30;;;;;;4918825;29;20028;-86
2021/06/23 12:57:00;;;;;;;4.97;2.80;;;44.10;53.80;;;;;;4915135;29;20023;-84